Time;durP1;ratioP1;P1;durP2;ratioP2;P2;SDS_P1;SDS_P2;PMS_P1;PMS_P2;Temp;Humidity;BMP_temperature;BMP_pressure;BME280_temperature;BME280_humidity;BME280_pressure;Samples;Min_cycle;Max_cycle;Signal;HPM_P1;HPM_P2
2023/08/18 03:01:07;;;;;;;2.92;2.00;;;25.20;60.50;;;;;;5570383;23;46227;-82
2023/08/18 03:03:36;;;;;;;4.07;2.15;;;25.20;60.60;;;;;;4887565;28;44742;-82
2023/08/18 03:06:07;;;;;;;3.60;1.88;;;25.20;60.50;;;;;;4874992;28;46964;-82
2023/08/18 03:08:35;;;;;;;3.92;2.00;;;25.20;60.50;;;;;;4917670;28;45429;-83
2023/08/18 03:11:01;;;;;;;3.10;1.65;;;25.20;60.50;;;;;;4926308;28;45317;-83
2023/08/18 03:13:27;;;;;;;4.38;2.08;;;25.20;60.50;;;;;;4884520;29;44816;-83
2023/08/18 03:15:52;;;;;;;2.58;1.80;;;25.20;60.50;;;;;;4849618;28;47404;-84
2023/08/18 03:18:18;;;;;;;3.92;2.10;;;25.20;60.60;;;;;;4902633;28;45122;-84
2023/08/18 03:20:46;;;;;;;2.83;1.85;;;25.20;60.50;;;;;;4885724;28;45249;-84
2023/08/18 03:23:15;;;;;;;4.13;2.03;;;25.20;60.50;;;;;;4875638;28;45912;-83
2023/08/18 03:25:41;;;;;;;2.80;1.77;;;25.20;60.40;;;;;;4887824;28;47160;-83
2023/08/18 03:28:07;;;;;;;3.13;1.88;;;25.20;60.50;;;;;;4861844;29;45180;-83
2023/08/18 03:30:38;;;;;;;2.67;1.75;;;25.20;60.40;;;;;;4863390;28;45043;-83
2023/08/18 03:33:04;;;;;;;2.40;1.67;;;25.20;60.40;;;;;;4876546;29;45635;-83
2023/08/18 03:35:35;;;;;;;2.75;1.85;;;25.20;60.40;;;;;;4868702;28;47164;-83
2023/08/18 03:38:04;;;;;;;3.92;1.83;;;25.20;60.40;;;;;;4883577;28;45508;-83
2023/08/18 03:40:29;;;;;;;4.45;2.10;;;25.20;60.40;;;;;;4899779;28;44771;-83
2023/08/18 03:42:55;;;;;;;3.42;2.03;;;25.20;60.40;;;;;;4868694;28;45274;-83
2023/08/18 03:45:20;;;;;;;3.20;1.70;;;25.20;60.40;;;;;;4872014;28;47389;-83
2023/08/18 03:47:46;;;;;;;2.88;1.67;;;25.20;60.40;;;;;;4849209;28;44879;-83
2023/08/18 03:50:11;;;;;;;2.10;1.48;;;25.20;60.40;;;;;;4895452;28;44803;-83
2023/08/18 03:52:37;;;;;;;4.00;1.90;;;25.20;60.40;;;;;;4895863;28;45377;-83
2023/08/18 03:55:04;;;;;;;3.03;2.05;;;25.20;60.40;;;;;;4909430;28;46476;-83
2023/08/18 03:57:30;;;;;;;3.08;1.48;;;25.20;60.40;;;;;;4889399;28;45297;-83
2023/08/18 03:59:55;;;;;;;2.92;1.90;;;25.20;60.40;;;;;;4899634;28;45885;-83
2023/08/18 04:02:22;;;;;;;3.17;1.73;;;25.20;60.40;;;;;;4889183;28;45802;-83
2023/08/18 04:04:48;;;;;;;2.50;1.65;;;25.20;61.10;;;;;;4899739;28;45429;-82
2023/08/18 04:07:13;;;;;;;2.35;1.45;;;25.20;60.40;;;;;;4878559;28;45838;-82
2023/08/18 04:09:39;;;;;;;2.10;1.73;;;25.20;60.40;;;;;;4858722;28;45176;-83
2023/08/18 04:12:05;;;;;;;3.13;1.67;;;25.20;60.40;;;;;;4864377;28;45880;-83
2023/08/18 04:14:30;;;;;;;3.53;1.60;;;25.20;60.40;;;;;;4867807;28;46339;-83
2023/08/18 04:16:56;;;;;;;4.38;1.55;;;25.20;60.30;;;;;;4860693;28;45517;-84
2023/08/18 04:19:21;;;;;;;2.85;1.60;;;25.20;60.40;;;;;;4880043;29;45187;-83
2023/08/18 04:21:47;;;;;;;2.30;1.30;;;25.20;60.30;;;;;;4876864;28;45012;-83
2023/08/18 04:24:13;;;;;;;3.25;1.83;;;25.20;60.30;;;;;;4883318;28;45318;-83
2023/08/18 04:26:39;;;;;;;2.10;1.42;;;25.20;60.40;;;;;;4851304;28;45272;-84
2023/08/18 04:29:05;;;;;;;1.85;1.38;;;25.20;60.30;;;;;;4865325;28;45462;-83
2023/08/18 04:31:31;;;;;;;2.75;1.35;;;25.20;60.30;;;;;;4843492;28;45009;-83
2023/08/18 04:33:57;;;;;;;2.03;1.45;;;25.20;60.30;;;;;;4889882;28;45460;-82
2023/08/18 04:36:22;;;;;;;2.05;1.30;;;25.20;60.30;;;;;;4850852;28;45242;-83
2023/08/18 04:38:48;;;;;;;5.28;1.80;;;25.20;60.30;;;;;;4892295;28;44660;-83
2023/08/18 04:41:13;;;;;;;1.45;1.23;;;25.20;60.30;;;;;;4853305;28;45998;-83
2023/08/18 04:43:39;;;;;;;2.75;1.67;;;25.20;60.30;;;;;;4882385;28;47150;-84
2023/08/18 04:46:04;;;;;;;2.97;1.42;;;25.20;60.30;;;;;;4877117;28;45525;-83
2023/08/18 04:48:30;;;;;;;2.83;1.33;;;25.20;60.30;;;;;;4851680;28;45420;-83
2023/08/18 04:50:56;;;;;;;2.88;1.75;;;25.20;60.30;;;;;;4864374;28;45096;-83
2023/08/18 04:53:21;;;;;;;3.58;1.42;;;25.20;60.30;;;;;;4884846;28;47352;-83
2023/08/18 04:55:47;;;;;;;3.28;1.65;;;25.20;60.30;;;;;;4860554;28;45112;-83
2023/08/18 04:58:12;;;;;;;4.32;1.50;;;25.20;60.20;;;;;;4890633;28;44647;-83
2023/08/18 05:00:41;;;;;;;2.47;1.27;;;25.10;60.20;;;;;;4877538;28;45252;-83
2023/08/18 05:03:07;;;;;;;1.95;1.23;;;25.20;60.20;;;;;;4871916;29;45417;-83
2023/08/18 05:05:39;;;;;;;1.55;1.33;;;25.20;60.20;;;;;;4871102;29;45301;-83
2023/08/18 05:08:04;;;;;;;2.38;1.20;;;25.10;60.10;;;;;;4850222;29;45068;-83
2023/08/18 05:10:30;;;;;;;2.92;1.27;;;25.10;60.20;;;;;;4844581;29;45298;-83
2023/08/18 05:12:56;;;;;;;2.58;1.40;;;25.20;60.20;;;;;;4824428;29;48481;-82
2023/08/18 05:15:22;;;;;;;2.30;1.30;;;25.10;60.10;;;;;;4843436;29;46204;-83
2023/08/18 05:17:48;;;;;;;2.90;1.38;;;25.20;60.20;;;;;;4854543;29;45388;-83
2023/08/18 05:20:14;;;;;;;2.38;1.40;;;25.10;60.10;;;;;;4850278;29;45103;-83
2023/08/18 05:22:40;;;;;;;3.13;1.20;;;25.10;60.20;;;;;;4857096;29;45110;-83
2023/08/18 05:25:07;;;;;;;11.88;2.28;;;25.10;60.10;;;;;;4859591;29;45249;-83
2023/08/18 05:27:36;;;;;;;17.63;2.63;;;25.10;60.10;;;;;;4842985;29;45376;-83
2023/08/18 05:30:04;;;;;;;21.95;3.53;;;25.10;60.10;;;;;;4852955;29;45299;-83
2023/08/18 05:32:30;;;;;;;30.83;5.43;;;25.10;60.10;;;;;;4843925;29;47058;-83
2023/08/18 05:34:56;;;;;;;28.38;4.15;;;25.10;60.10;;;;;;4872574;29;45521;-83
2023/08/18 05:37:23;;;;;;;25.98;3.70;;;25.10;60.20;;;;;;4862971;29;45495;-83
2023/08/18 05:39:48;;;;;;;20.65;4.22;;;25.10;60.10;;;;;;4871485;29;45153;-83
2023/08/18 05:42:15;;;;;;;25.05;4.20;;;25.10;60.10;;;;;;4846104;29;47917;-83
2023/08/18 05:44:42;;;;;;;32.38;4.82;;;25.10;60.10;;;;;;4867636;29;44750;-83
2023/08/18 05:47:07;;;;;;;35.97;6.05;;;25.10;60.10;;;;;;4863142;29;45241;-83
2023/08/18 05:49:33;;;;;;;34.58;5.60;;;25.10;60.10;;;;;;4874148;29;45193;-83
2023/08/18 05:51:58;;;;;;;48.05;6.07;;;25.10;60.10;;;;;;4859265;29;47315;-83
2023/08/18 05:54:24;;;;;;;38.83;6.60;;;25.10;60.10;;;;;;4867644;29;44736;-84
2023/08/18 05:56:50;;;;;;;48.47;6.97;;;25.10;60.10;;;;;;4865028;29;45272;-84
2023/08/18 05:59:15;;;;;;;48.45;7.15;;;25.10;60.10;;;;;;4851084;29;44986;-83
2023/08/18 06:01:41;;;;;;;44.28;7.53;;;25.10;60.10;;;;;;4871651;28;45455;-84
2023/08/18 06:04:07;;;;;;;50.78;7.72;;;25.10;60.10;;;;;;4868624;29;45104;-83
2023/08/18 06:06:34;;;;;;;50.63;7.00;;;25.10;60.10;;;;;;4860740;29;44763;-83
2023/08/18 06:09:01;;;;;;;57.38;7.85;;;25.10;60.10;;;;;;4878393;29;45237;-84
2023/08/18 06:11:27;;;;;;;52.13;7.72;;;25.10;60.10;;;;;;4851333;29;47024;-84
2023/08/18 06:13:52;;;;;;;51.63;8.77;;;25.10;60.10;;;;;;4868792;29;45411;-84
2023/08/18 06:16:18;;;;;;;69.15;9.65;;;25.10;60.10;;;;;;4841925;29;45144;-84
2023/08/18 06:18:43;;;;;;;46.40;9.63;;;25.10;60.10;;;;;;4865402;29;45311;-83
2023/08/18 06:21:09;;;;;;;76.82;11.10;;;25.10;60.10;;;;;;4864136;29;47341;-83
2023/08/18 06:23:34;;;;;;;66.47;10.73;;;25.10;60.10;;;;;;4868144;29;45273;-83
2023/08/18 06:26:00;;;;;;;61.47;10.80;;;25.10;60.10;;;;;;4848681;29;45311;-83
2023/08/18 06:28:26;;;;;;;79.13;10.88;;;25.10;60.10;;;;;;4849910;28;45859;-84
2023/08/18 06:30:51;;;;;;;77.43;12.73;;;25.10;60.10;;;;;;4859876;29;46742;-83
2023/08/18 06:33:17;;;;;;;71.93;11.20;;;25.10;60.10;;;;;;4876422;28;45101;-84
2023/08/18 06:35:42;;;;;;;72.60;11.73;;;25.10;60.10;;;;;;4880699;29;45814;-84
2023/08/18 06:38:08;;;;;;;64.43;11.07;;;25.10;60.10;;;;;;4865321;28;45146;-82
2023/08/18 06:40:33;;;;;;;63.47;10.80;;;25.10;60.10;;;;;;4860558;29;45416;-83
2023/08/18 06:42:59;;;;;;;83.97;11.57;;;25.10;60.10;;;;;;4860649;28;45408;-83
2023/08/18 06:45:24;;;;;;;75.43;11.98;;;25.00;60.00;;;;;;4858108;28;45370;-84
2023/08/18 06:47:50;;;;;;;82.90;13.57;;;25.00;60.00;;;;;;4864123;29;46592;-83
2023/08/18 06:50:16;;;;;;;77.38;12.07;;;25.00;60.00;;;;;;4878963;29;45584;-85
2023/08/18 06:52:41;;;;;;;92.55;13.52;;;25.00;60.10;;;;;;4855203;29;45030;-84
2023/08/18 06:55:13;;;;;;;94.22;13.85;;;25.10;60.10;;;;;;4869363;29;45584;-84
2023/08/18 06:57:39;;;;;;;90.32;14.30;;;25.00;60.00;;;;;;4842965;29;45402;-84
2023/08/18 07:00:06;;;;;;;102.50;15.05;;;25.00;60.10;;;;;;4848954;28;46801;-84
2023/08/18 07:02:32;;;;;;;98.03;14.20;;;25.00;60.10;;;;;;4874888;28;45465;-84
2023/08/18 07:04:57;;;;;;;110.30;14.23;;;25.00;60.00;;;;;;4900479;28;45328;-84
2023/08/18 07:07:23;;;;;;;108.72;15.50;;;25.00;60.00;;;;;;4889029;28;45334;-82
2023/08/18 07:09:49;;;;;;;95.03;14.38;;;25.00;60.00;;;;;;4873845;28;46208;-84
2023/08/18 07:12:16;;;;;;;104.75;15.88;;;25.00;60.10;;;;;;4876910;28;44796;-84
2023/08/18 07:14:42;;;;;;;97.25;15.32;;;25.00;60.00;;;;;;4904486;28;45234;-83
2023/08/18 07:17:07;;;;;;;94.95;15.85;;;25.00;60.00;;;;;;4865466;28;45797;-84
2023/08/18 07:19:33;;;;;;;87.43;14.45;;;25.10;60.10;;;;;;4881163;28;47006;-84
2023/08/18 07:21:59;;;;;;;101.55;15.80;;;25.00;60.00;;;;;;4886794;28;45472;-84
2023/08/18 07:24:25;;;;;;;107.13;14.63;;;25.00;60.00;;;;;;4870740;28;45199;-84
2023/08/18 07:26:51;;;;;;;87.18;15.98;;;25.00;60.00;;;;;;4886051;28;45230;-83
2023/08/18 07:29:19;;;;;;;98.65;15.90;;;25.00;60.00;;;;;;4864811;28;47134;-83
2023/08/18 07:31:44;;;;;;;90.32;14.90;;;25.00;60.00;;;;;;4891188;28;45239;-83
2023/08/18 07:34:10;;;;;;;89.53;14.50;;;25.00;60.00;;;;;;4902980;28;45355;-84
2023/08/18 07:36:36;;;;;;;87.25;15.40;;;25.00;60.00;;;;;;4861343;28;46242;-84
2023/08/18 07:39:04;;;;;;;89.88;14.95;;;25.00;60.10;;;;;;4867945;28;46844;-84
2023/08/18 07:41:29;;;;;;;99.72;15.90;;;25.00;60.00;;;;;;4879903;28;45369;-83
2023/08/18 07:43:55;;;;;;;93.30;16.85;;;25.00;60.10;;;;;;4884374;28;44984;-84
2023/08/18 07:46:20;;;;;;;99.68;15.85;;;25.00;60.00;;;;;;4896139;28;45511;-84
2023/08/18 07:48:46;;;;;;;89.25;15.30;;;25.00;60.00;;;;;;4872981;28;47121;-84
2023/08/18 07:51:11;;;;;;;100.15;14.45;;;25.00;60.00;;;;;;4896237;28;45640;-83
2023/08/18 07:53:37;;;;;;;77.38;14.55;;;25.00;60.00;;;;;;4890441;28;45355;-84
2023/08/18 07:56:03;;;;;;;97.32;15.27;;;25.00;60.00;;;;;;4875735;28;45190;-84
2023/08/18 07:58:29;;;;;;;95.53;16.92;;;25.00;60.00;;;;;;4872229;28;46057;-84
2023/08/18 08:00:56;;;;;;;98.68;16.90;;;25.00;60.00;;;;;;4872842;28;46387;-83
2023/08/18 08:03:22;;;;;;;89.50;16.40;;;25.00;60.00;;;;;;4869622;28;44678;-83
2023/08/18 08:05:48;;;;;;;93.95;16.08;;;25.00;60.00;;;;;;4873434;29;44875;-83
2023/08/18 08:08:14;;;;;;;81.78;16.10;;;25.00;60.00;;;;;;4853067;28;47052;-83
2023/08/18 08:10:39;;;;;;;92.13;15.60;;;25.00;60.00;;;;;;4907744;28;45173;-83
2023/08/18 08:13:05;;;;;;;99.93;16.85;;;25.00;60.00;;;;;;4896646;28;44978;-84
2023/08/18 08:15:32;;;;;;;95.72;16.35;;;25.00;60.00;;;;;;4888356;28;45556;-82
2023/08/18 08:17:57;;;;;;;97.47;15.32;;;25.00;60.00;;;;;;4861856;29;47023;-83
2023/08/18 08:20:24;;;;;;;86.80;15.65;;;25.00;60.00;;;;;;4878971;28;45057;-83
2023/08/18 08:22:50;;;;;;;97.57;16.23;;;25.00;60.00;;;;;;4851662;29;44680;-83
2023/08/18 08:25:16;;;;;;;106.30;17.30;;;25.00;60.00;;;;;;4873729;28;45586;-84
2023/08/18 08:27:41;;;;;;;102.30;17.10;;;25.00;60.00;;;;;;4880457;29;46847;-84
2023/08/18 08:30:09;;;;;;;92.03;15.52;;;25.00;60.00;;;;;;4889158;28;45560;-84
2023/08/18 08:32:34;;;;;;;90.25;16.00;;;25.00;60.00;;;;;;4856763;28;45737;-83
2023/08/18 08:35:00;;;;;;;101.47;17.45;;;25.00;60.00;;;;;;4877564;28;45447;-85
2023/08/18 08:37:25;;;;;;;84.57;15.82;;;25.10;60.00;;;;;;4873851;29;45472;-84
2023/08/18 08:39:51;;;;;;;93.93;16.77;;;25.00;60.00;;;;;;4870843;29;45481;-84
2023/08/18 08:42:17;;;;;;;85.70;15.23;;;25.10;60.10;;;;;;4873721;28;45342;-84
2023/08/18 08:44:42;;;;;;;83.43;15.82;;;25.00;60.00;;;;;;4881616;28;45132;-84
2023/08/18 08:47:08;;;;;;;82.40;15.50;;;25.10;60.10;;;;;;4844249;28;48114;-84
2023/08/18 08:49:34;;;;;;;91.47;16.67;;;25.10;60.10;;;;;;4864322;29;45321;-84
2023/08/18 08:52:03;;;;;;;87.28;16.10;;;25.10;60.00;;;;;;4895103;28;44897;-83
2023/08/18 08:54:29;;;;;;;95.18;16.08;;;25.00;60.00;;;;;;4913268;28;45480;-85
2023/08/18 08:56:54;;;;;;;85.80;15.77;;;25.10;60.10;;;;;;4893892;28;46192;-84
2023/08/18 08:59:20;;;;;;;77.68;16.40;;;25.10;60.00;;;;;;4869769;28;45353;-84
2023/08/18 09:01:46;;;;;;;81.82;15.98;;;25.10;60.10;;;;;;4908324;28;44687;-83
2023/08/18 09:04:12;;;;;;;80.35;16.02;;;25.10;60.10;;;;;;4906885;28;45506;-83
2023/08/18 09:06:37;;;;;;;86.75;16.50;;;25.10;60.80;;;;;;4896144;28;46646;-83
2023/08/18 09:09:03;;;;;;;75.40;15.98;;;25.10;60.00;;;;;;4886152;28;45273;-85
2023/08/18 09:11:59;;;;;;;91.93;17.42;;;25.10;60.00;;;;;;4839021;29;45078;-83
2023/08/18 09:14:26;;;;;;;79.07;15.50;;;25.10;59.90;;;;;;4865431;29;45324;-84
2023/08/18 09:16:52;;;;;;;83.68;16.15;;;25.10;60.00;;;;;;4868901;29;46292;-84
2023/08/18 09:19:18;;;;;;;84.07;16.45;;;25.10;60.00;;;;;;4853926;28;44820;-84
2023/08/18 09:21:43;;;;;;;75.05;16.52;;;25.10;60.00;;;;;;4860965;28;45399;-84
2023/08/18 09:24:09;;;;;;;90.93;18.77;;;25.10;60.00;;;;;;4879786;28;44874;-84
2023/08/18 09:26:35;;;;;;;92.68;16.67;;;25.10;60.00;;;;;;4872260;29;47483;-85
2023/08/18 09:29:02;;;;;;;84.50;15.63;;;25.10;60.00;;;;;;4880535;29;45287;-85
2023/08/18 09:31:29;;;;;;;94.13;17.27;;;25.10;60.00;;;;;;4878080;29;49107;-85
2023/08/18 09:33:54;;;;;;;92.85;17.83;;;25.10;60.00;;;;;;4850575;29;45163;-83
2023/08/18 09:36:20;;;;;;;81.32;16.45;;;25.10;60.00;;;;;;4843701;28;47038;-84
2023/08/18 09:38:46;;;;;;;90.30;16.52;;;25.10;60.00;;;;;;4887554;29;45638;-86
2023/08/18 09:41:12;;;;;;;83.20;14.85;;;25.10;60.00;;;;;;4887375;28;45493;-83
2023/08/18 09:43:38;;;;;;;71.05;13.95;;;25.10;59.90;;;;;;4894963;28;45302;-84
2023/08/18 09:46:05;;;;;;;76.40;15.85;;;25.10;59.90;;;;;;4905451;28;45479;-84
2023/08/18 09:48:35;;;;;;;80.20;15.82;;;25.10;60.00;;;;;;4869562;28;44803;-84
2023/08/18 09:51:01;;;;;;;72.40;14.63;;;25.10;59.90;;;;;;4889060;29;45163;-83
2023/08/18 09:53:31;;;;;;;67.30;15.23;;;25.10;60.00;;;;;;4868971;29;45812;-84
2023/08/18 09:56:06;;;;;;;72.75;14.15;;;25.10;60.00;;;;;;4856888;29;46932;-85
2023/08/18 09:58:43;;;;;;;65.13;14.75;;;25.10;59.90;;;;;;4879276;28;45220;-84
2023/08/18 10:01:08;;;;;;;70.82;13.75;;;25.10;60.00;;;;;;4873846;29;44777;-84
2023/08/18 10:03:36;;;;;;;87.97;14.57;;;25.10;60.00;;;;;;4877015;29;45354;-83
2023/08/18 10:06:02;;;;;;;64.28;12.65;;;25.10;60.00;;;;;;4877580;29;46253;-82
2023/08/18 10:08:28;;;;;;;60.60;14.20;;;25.10;59.90;;;;;;4883303;29;46136;-82
2023/08/18 10:10:53;;;;;;;72.70;13.82;;;25.10;59.90;;;;;;4856050;29;45644;-82
2023/08/18 10:13:19;;;;;;;80.45;14.38;;;25.10;60.00;;;;;;4869871;29;45568;-82
2023/08/18 10:15:45;;;;;;;67.18;13.25;;;25.10;60.00;;;;;;4865036;29;46399;-82
2023/08/18 10:18:11;;;;;;;68.07;14.75;;;25.10;59.90;;;;;;4865980;29;45344;-82
2023/08/18 10:20:48;;;;;;;72.35;13.40;;;25.20;60.10;;;;;;4834951;29;45083;-83
2023/08/18 10:23:13;;;;;;;65.38;13.32;;;25.20;60.10;;;;;;4867840;29;45154;-81
2023/08/18 10:25:39;;;;;;;78.03;13.57;;;25.20;60.10;;;;;;4858118;28;47132;-82
2023/08/18 10:28:08;;;;;;;73.07;14.02;;;25.20;60.80;;;;;;4865486;29;44732;-82
2023/08/18 10:30:34;;;;;;;63.45;13.52;;;25.20;60.00;;;;;;4863223;28;45486;-82
2023/08/18 10:33:04;;;;;;;70.15;13.18;;;25.20;60.10;;;;;;4866449;29;45319;-82
2023/08/18 10:35:30;;;;;;;60.30;13.82;;;25.20;60.00;;;;;;4846732;29;47149;-82
2023/08/18 10:38:05;;;;;;;61.80;13.52;;;25.20;60.10;;;;;;4883053;29;45261;-83
2023/08/18 10:40:35;;;;;;;71.72;13.98;;;25.20;60.10;;;;;;4867264;29;44760;-82
2023/08/18 10:43:14;;;;;;;71.53;13.35;;;25.20;60.10;;;;;;4877579;29;44771;-82
2023/08/18 10:45:40;;;;;;;68.25;13.48;;;25.20;60.00;;;;;;4859573;29;45515;-84
2023/08/18 10:48:06;;;;;;;61.00;13.20;;;25.20;60.10;;;;;;4900499;28;45215;-83
2023/08/18 10:50:36;;;;;;;59.92;13.27;;;25.20;60.10;;;;;;4897475;28;45369;-84
2023/08/18 10:53:04;;;;;;;61.45;12.80;;;25.20;60.10;;;;;;4863449;28;44843;-82
2023/08/18 10:55:30;;;;;;;59.28;12.85;;;25.20;60.10;;;;;;4863036;29;46833;-83
2023/08/18 10:57:55;;;;;;;61.63;11.82;;;25.20;60.10;;;;;;4877990;29;45313;-82
2023/08/18 11:00:21;;;;;;;54.40;12.63;;;25.20;60.10;;;;;;4881298;28;45252;-83
2023/08/18 11:02:49;;;;;;;50.83;12.57;;;25.20;60.10;;;;;;4881029;28;45287;-82
2023/08/18 11:05:19;;;;;;;61.45;12.02;;;25.20;60.10;;;;;;4899099;28;45539;-83
2023/08/18 11:07:45;;;;;;;58.97;12.38;;;25.20;60.10;;;;;;4888768;28;45315;-84
2023/08/18 11:10:18;;;;;;;51.50;11.20;;;25.20;60.10;;;;;;4860993;28;46084;-86
2023/08/18 11:12:44;;;;;;;;;;;25.20;60.10;;;;;;4876530;28;45318;-83
2023/08/18 11:15:10;;;;;;;53.83;11.07;;;25.20;60.20;;;;;;4884698;28;47241;-85
2023/08/18 11:17:36;;;;;;;51.20;10.68;;;25.20;60.20;;;;;;4855720;28;45009;-83
2023/08/18 11:20:03;;;;;;;52.47;12.57;;;25.20;60.20;;;;;;4885659;28;45220;-83
2023/08/18 11:22:29;;;;;;;48.53;11.75;;;25.20;60.10;;;;;;4897847;28;45246;-82
2023/08/18 11:24:54;;;;;;;48.33;11.10;;;25.20;60.10;;;;;;4902495;28;47388;-83
2023/08/18 11:27:20;;;;;;;54.40;12.25;;;25.20;60.10;;;;;;4877805;28;44758;-83
2023/08/18 11:29:45;;;;;;;50.08;11.18;;;25.20;60.10;;;;;;4899991;28;45009;-82
2023/08/18 11:32:11;;;;;;;48.10;11.35;;;25.20;60.10;;;;;;4854003;28;44985;-83
2023/08/18 11:34:37;;;;;;;39.63;10.02;;;25.20;60.20;;;;;;4917366;28;47666;-82
2023/08/18 11:37:04;;;;;;;50.95;11.65;;;25.20;60.10;;;;;;4890224;28;45576;-82
2023/08/18 11:39:30;;;;;;;45.38;10.10;;;25.20;60.10;;;;;;4887061;28;45707;-83
2023/08/18 11:41:56;;;;;;;39.63;10.00;;;25.20;60.10;;;;;;4894363;28;45554;-83
2023/08/18 11:44:22;;;;;;;46.00;10.98;;;25.20;60.20;;;;;;4900437;28;45469;-83
2023/08/18 11:46:47;;;;;;;39.10;10.43;;;25.20;60.20;;;;;;4912035;28;45302;-84
2023/08/18 11:49:17;;;;;;;41.35;10.55;;;25.20;60.20;;;;;;4874682;28;46216;-82
2023/08/18 11:52:13;;;;;;;41.00;10.07;;;25.20;60.10;;;;;;4883729;28;45362;-82
2023/08/18 11:54:41;;;;;;;40.05;9.75;;;25.20;60.10;;;;;;4867327;28;45919;-82
2023/08/18 11:57:08;;;;;;;44.55;9.18;;;25.20;60.20;;;;;;4870209;28;45732;-82
2023/08/18 11:59:33;;;;;;;40.47;8.95;;;25.20;60.30;;;;;;4914457;28;45584;-83
2023/08/18 12:02:00;;;;;;;36.00;9.18;;;25.20;60.20;;;;;;4891969;28;45530;-83
2023/08/18 12:04:26;;;;;;;41.03;8.93;;;25.20;60.20;;;;;;4889316;28;45262;-83
2023/08/18 12:06:52;;;;;;;38.97;9.40;;;25.20;60.30;;;;;;4872889;28;44721;-82
2023/08/18 12:09:18;;;;;;;32.88;7.97;;;25.20;60.20;;;;;;4904117;28;45108;-83
2023/08/18 12:11:43;;;;;;;31.77;8.88;;;25.20;60.20;;;;;;4913906;28;45131;-81
2023/08/18 12:14:09;;;;;;;37.53;8.75;;;25.20;60.20;;;;;;4878312;28;45370;-83
2023/08/18 12:16:34;;;;;;;31.95;8.55;;;25.20;60.20;;;;;;4868423;28;45557;-83
2023/08/18 12:19:01;;;;;;;38.53;9.27;;;25.20;60.30;;;;;;4882148;28;45224;-82
2023/08/18 12:21:27;;;;;;;43.08;9.60;;;25.20;60.30;;;;;;4893305;28;45913;-82
2023/08/18 12:23:53;;;;;;;30.75;8.07;;;25.20;60.20;;;;;;4871774;28;47292;-82
2023/08/18 12:26:18;;;;;;;27.02;8.02;;;25.20;60.20;;;;;;4909917;28;45413;-82
2023/08/18 12:28:44;;;;;;;35.78;8.70;;;25.20;60.30;;;;;;4879883;28;47022;-82
2023/08/18 12:31:10;;;;;;;30.02;8.57;;;25.20;60.30;;;;;;4883491;28;45411;-81
2023/08/18 12:33:35;;;;;;;41.08;8.90;;;25.20;60.30;;;;;;4886078;28;45529;-82
2023/08/18 12:36:02;;;;;;;40.95;9.18;;;25.20;60.30;;;;;;4897792;28;45123;-82
2023/08/18 12:38:28;;;;;;;43.60;9.73;;;25.20;60.30;;;;;;4870598;28;45541;-82
2023/08/18 12:40:54;;;;;;;35.25;8.10;;;25.20;60.30;;;;;;4880545;28;45214;-82
2023/08/18 12:43:19;;;;;;;33.45;8.30;;;25.20;60.30;;;;;;4867772;28;48368;-83
2023/08/18 12:45:45;;;;;;;34.83;9.02;;;25.20;60.30;;;;;;4890300;28;45600;-81
2023/08/18 12:48:10;;;;;;;38.47;9.05;;;25.20;60.30;;;;;;4862436;28;45429;-82
2023/08/18 12:50:36;;;;;;;41.90;9.07;;;25.20;60.30;;;;;;4863911;28;45376;-82
2023/08/18 12:53:01;;;;;;;34.20;8.07;;;25.20;60.40;;;;;;4898965;28;47261;-81
2023/08/18 12:55:27;;;;;;;38.80;8.93;;;25.20;60.30;;;;;;4882390;28;45609;-85
2023/08/18 12:57:52;;;;;;;36.25;9.15;;;25.20;60.30;;;;;;4911069;28;45449;-82
2023/08/18 13:00:18;;;;;;;36.53;8.20;;;25.20;60.30;;;;;;4866444;28;44920;-82
2023/08/18 13:02:44;;;;;;;33.80;7.45;;;25.20;60.40;;;;;;4882727;28;48675;-82
2023/08/18 13:05:09;;;;;;;30.77;8.77;;;25.20;60.40;;;;;;4882020;28;45248;-84
2023/08/18 13:07:35;;;;;;;43.85;8.93;;;25.20;60.30;;;;;;4913646;28;45274;-82
2023/08/18 13:10:00;;;;;;;39.30;9.32;;;25.20;60.30;;;;;;4892618;28;44985;-84
2023/08/18 13:12:26;;;;;;;31.75;8.80;;;25.20;60.40;;;;;;4864644;28;45729;-81
2023/08/18 13:14:51;;;;;;;33.90;7.95;;;25.20;60.30;;;;;;4893024;28;45362;-81
2023/08/18 13:17:17;;;;;;;36.35;8.10;;;25.20;60.40;;;;;;4892598;28;45950;-81
2023/08/18 13:19:42;;;;;;;30.13;8.82;;;25.20;60.40;;;;;;4879520;28;45268;-82
2023/08/18 13:22:08;;;;;;;30.63;8.68;;;25.20;60.30;;;;;;4899826;28;47144;-82
2023/08/18 13:24:34;;;;;;;36.50;8.07;;;25.20;60.40;;;;;;4895933;28;45283;-81
2023/08/18 13:26:59;;;;;;;35.92;7.93;;;25.20;60.30;;;;;;4885490;28;45379;-82
2023/08/18 13:29:25;;;;;;;31.63;7.55;;;25.20;60.40;;;;;;4872614;28;44941;-82
2023/08/18 13:31:52;;;;;;;34.60;8.25;;;25.20;60.40;;;;;;4877910;28;45520;-83
2023/08/18 13:34:17;;;;;;;23.92;6.57;;;25.20;60.40;;;;;;4869591;28;45444;-81
2023/08/18 13:36:43;;;;;;;26.70;7.53;;;25.20;60.40;;;;;;4914872;28;45213;-82
2023/08/18 13:39:09;;;;;;;25.85;7.47;;;25.20;60.40;;;;;;4890183;28;45610;-84
2023/08/18 13:41:34;;;;;;;29.27;7.47;;;25.20;60.40;;;;;;4898705;28;46676;-82
2023/08/18 13:44:03;;;;;;;31.75;8.48;;;25.20;60.40;;;;;;4889981;28;45431;-82
2023/08/18 13:46:29;;;;;;;25.23;7.50;;;25.20;60.40;;;;;;4876014;28;44787;-83
2023/08/18 13:48:55;;;;;;;26.55;7.22;;;25.20;60.40;;;;;;4883946;28;45221;-81
2023/08/18 13:51:21;;;;;;;27.10;6.45;;;25.20;60.40;;;;;;4893602;28;45611;-82
2023/08/18 13:53:46;;;;;;;26.95;7.20;;;25.20;60.40;;;;;;4840803;28;45438;-81
2023/08/18 13:56:12;;;;;;;27.85;7.57;;;25.20;60.40;;;;;;4827647;29;45204;-82
2023/08/18 13:58:37;;;;;;;26.80;7.47;;;25.20;61.20;;;;;;4852144;29;45688;-82
2023/08/18 14:01:04;;;;;;;27.02;6.57;;;25.20;60.40;;;;;;4819674;29;46452;-82
2023/08/18 14:03:31;;;;;;;30.00;7.15;;;25.20;60.40;;;;;;4844482;29;44910;-82
2023/08/18 14:05:57;;;;;;;28.65;6.65;;;25.20;60.40;;;;;;4798321;29;44765;-82
2023/08/18 14:08:22;;;;;;;21.20;6.45;;;25.20;60.40;;;;;;4836852;29;44728;-81
2023/08/18 14:10:48;;;;;;;28.88;6.93;;;25.20;60.40;;;;;;4824700;29;46719;-82
2023/08/18 14:13:13;;;;;;;25.27;6.75;;;25.20;60.40;;;;;;4856483;29;45416;-83
2023/08/18 14:15:40;;;;;;;24.85;6.28;;;25.20;60.40;;;;;;4858952;29;46200;-83
2023/08/18 14:18:06;;;;;;;24.13;6.47;;;25.20;60.40;;;;;;4848621;29;45835;-83
2023/08/18 14:20:31;;;;;;;21.42;6.13;;;25.20;60.40;;;;;;4863733;29;45517;-84
2023/08/18 14:22:57;;;;;;;24.73;6.53;;;25.20;60.50;;;;;;4870973;29;44786;-83
2023/08/18 14:25:23;;;;;;;17.85;6.20;;;25.20;60.50;;;;;;4855134;29;45422;-83
2023/08/18 14:27:49;;;;;;;27.42;6.72;;;25.20;60.50;;;;;;4866804;29;44828;-82
2023/08/18 14:30:15;;;;;;;23.60;6.40;;;25.20;60.50;;;;;;4851760;29;45469;-82
2023/08/18 14:32:40;;;;;;;12.95;5.20;;;25.20;60.50;;;;;;4880325;29;44663;-84
2023/08/18 14:35:10;;;;;;;19.75;6.28;;;25.20;60.50;;;;;;4850046;29;44988;-84
2023/08/18 14:37:38;;;;;;;27.40;6.72;;;25.20;60.50;;;;;;4886399;28;46326;-83
2023/08/18 14:40:06;;;;;;;19.90;6.03;;;25.20;60.50;;;;;;4850279;29;48336;-84
2023/08/18 14:42:32;;;;;;;21.98;6.22;;;25.30;60.60;;;;;;4852891;29;44995;-83
2023/08/18 14:44:58;;;;;;;15.90;6.07;;;25.20;60.50;;;;;;4870057;29;45275;-83
2023/08/18 14:47:23;;;;;;;20.13;6.22;;;25.20;60.50;;;;;;4861521;29;45242;-82
2023/08/18 14:49:49;;;;;;;15.73;5.95;;;25.20;60.50;;;;;;4875591;29;47310;-83
2023/08/18 14:52:15;;;;;;;15.82;5.72;;;25.20;60.60;;;;;;4857810;29;45275;-83
2023/08/18 14:54:41;;;;;;;17.77;5.43;;;25.20;60.60;;;;;;4887630;29;45256;-82
2023/08/18 14:57:07;;;;;;;20.02;5.80;;;25.30;60.60;;;;;;4872117;29;45935;-83
2023/08/18 14:59:36;;;;;;;15.43;5.20;;;25.30;60.70;;;;;;4878023;29;48548;-82
2023/08/18 15:02:03;;;;;;;17.50;5.60;;;25.20;60.60;;;;;;4860909;28;44675;-83
2023/08/18 15:04:30;;;;;;;13.70;5.38;;;25.20;60.70;;;;;;4872547;28;45287;-82
2023/08/18 15:06:56;;;;;;;17.67;5.30;;;25.30;60.70;;;;;;4869087;29;44848;-83
2023/08/18 15:09:22;;;;;;;15.32;5.18;;;25.30;60.70;;;;;;4872845;28;46979;-82
2023/08/18 15:11:47;;;;;;;14.65;5.05;;;25.30;60.80;;;;;;4869844;28;45212;-83
2023/08/18 15:14:13;;;;;;;12.48;5.07;;;25.30;60.70;;;;;;4913698;28;44745;-82
2023/08/18 15:16:38;;;;;;;20.05;5.95;;;25.30;60.80;;;;;;4854736;29;45499;-82
2023/08/18 15:19:04;;;;;;;12.85;5.38;;;25.30;60.70;;;;;;4901188;28;47375;-83
2023/08/18 15:21:30;;;;;;;14.82;4.85;;;25.30;60.80;;;;;;4894909;29;45281;-82
2023/08/18 15:23:56;;;;;;;15.98;5.45;;;25.30;61.50;;;;;;4916067;28;45131;-82
2023/08/18 15:26:22;;;;;;;13.75;4.65;;;25.20;60.70;;;;;;4896541;28;45387;-82
2023/08/18 15:28:47;;;;;;;12.18;4.82;;;25.30;60.70;;;;;;4883110;29;45326;-82